createdAt,value
2022-09-01T00:00:01.950Z,23.63
2022-09-01T00:02:33.444Z,23.78
2022-09-01T00:05:00.888Z,23.25
2022-09-01T00:07:30.541Z,22.87
2022-09-01T00:09:59.633Z,22.56
2022-09-01T00:12:28.950Z,22.44
2022-09-01T00:14:56.258Z,22.25
2022-09-01T00:17:23.547Z,22.41
2022-09-01T00:19:50.924Z,22.47
2022-09-01T00:22:18.189Z,22.42
2022-09-01T00:24:45.440Z,22.48
2022-09-01T00:27:12.937Z,22.47
2022-09-01T00:29:44.062Z,22.45
2022-09-01T00:32:12.292Z,22.53
2022-09-01T00:34:39.822Z,22.81
2022-09-01T00:37:07.775Z,22.81
2022-09-01T00:39:35.178Z,22.78
2022-09-01T00:42:02.981Z,22.73
2022-09-01T00:44:31.413Z,22.36
2022-09-01T00:47:00.140Z,22.44
2022-09-01T00:49:41.635Z,22.60
2022-09-01T00:52:16.967Z,22.56
2022-09-01T00:54:47.899Z,22.57
2022-09-01T00:57:16.378Z,22.38
2022-09-01T00:59:49.998Z,22.37
2022-09-01T01:02:17.540Z,22.12
2022-09-01T01:04:46.287Z,22.04
2022-09-01T01:07:15.068Z,22.12
2022-09-01T01:09:44.949Z,22.16
2022-09-01T01:12:13.764Z,22.13
2022-09-01T01:14:41.755Z,21.95
2022-09-01T01:17:13.312Z,21.82
2022-09-01T01:20:04.922Z,21.75
2022-09-01T01:23:02.481Z,21.67
2022-09-01T01:25:40.319Z,21.75
2022-09-01T01:28:31.881Z,21.83
2022-09-01T01:31:12.581Z,21.73
2022-09-01T01:33:42.890Z,21.69
2022-09-01T01:36:19.310Z,21.72
2022-09-01T01:38:49.264Z,21.71
2022-09-01T01:41:19.643Z,21.87
2022-09-01T01:43:51.124Z,21.61
2022-09-01T01:46:20.648Z,21.87
2022-09-01T01:48:48.670Z,22.08
2022-09-01T01:51:20.133Z,22.10
2022-09-01T01:53:52.655Z,21.95
2022-09-01T01:56:23.921Z,21.76
2022-09-01T01:58:56.372Z,21.75
2022-09-01T02:01:28.745Z,21.67
2022-09-01T02:03:59.177Z,21.60
2022-09-01T02:06:28.701Z,21.60
2022-09-01T02:08:59.095Z,21.67
2022-09-01T02:11:27.055Z,21.60
2022-09-01T02:13:57.310Z,21.66
2022-09-01T02:16:28.105Z,21.64
2022-09-01T02:18:57.013Z,21.60
2022-09-01T02:21:25.347Z,21.64
2022-09-01T02:24:02.239Z,21.65
2022-09-01T02:26:39.604Z,21.71
2022-09-01T02:29:18.008Z,21.85
2022-09-01T02:31:51.910Z,21.85
2022-09-01T02:34:20.627Z,21.69
2022-09-01T02:36:51.332Z,21.59
2022-09-01T02:39:24.477Z,21.60
2022-09-01T02:41:52.180Z,21.18
2022-09-01T02:44:24.468Z,21.27
2022-09-01T02:46:51.700Z,21.22
2022-09-01T02:49:28.289Z,21.47
2022-09-01T02:51:59.559Z,21.67
2022-09-01T02:54:28.751Z,21.78
2022-09-01T02:56:56.043Z,21.80
2022-09-01T02:59:27.705Z,21.77
2022-09-01T03:01:58.856Z,21.74
2022-09-01T03:04:27.275Z,21.54
2022-09-01T03:06:58.683Z,21.46
2022-09-01T03:09:26.124Z,21.24
2022-09-01T03:11:54.432Z,21.38
2022-09-01T03:14:24.277Z,21.34
2022-09-01T03:16:52.603Z,21.51
2022-09-01T03:19:20.377Z,22.16
2022-09-01T03:21:48.684Z,22.52
2022-09-01T03:24:22.345Z,22.36
2022-09-01T03:26:51.625Z,21.99
2022-09-01T03:29:19.980Z,21.69
2022-09-01T03:31:47.782Z,21.32
2022-09-01T03:34:19.264Z,21.08
2022-09-01T03:36:50.896Z,21.06
2022-09-01T03:39:36.683Z,21.19
2022-09-01T03:42:05.078Z,21.30
2022-09-01T03:44:38.303Z,21.37
2022-09-01T03:47:10.716Z,21.43
2022-09-01T03:49:39.408Z,21.44
2022-09-01T03:52:08.918Z,21.49
2022-09-01T03:54:36.733Z,21.52
2022-09-01T03:57:06.812Z,21.41
2022-09-01T03:59:34.197Z,21.18
2022-09-01T04:02:02.868Z,21.31
2022-09-01T04:04:33.154Z,21.24
2022-09-01T04:07:00.720Z,21.32
2022-09-01T04:09:29.304Z,21.41
2022-09-01T04:11:56.550Z,21.38
2022-09-01T04:14:25.543Z,21.41
2022-09-01T04:17:13.852Z,21.35
2022-09-01T04:19:43.036Z,21.30
2022-09-01T04:22:14.360Z,21.30
2022-09-01T04:24:45.990Z,21.45
2022-09-01T04:27:15.434Z,21.50
2022-09-01T04:29:46.510Z,21.51
2022-09-01T04:32:15.812Z,21.26
2022-09-01T04:34:46.932Z,21.22
2022-09-01T04:37:21.159Z,21.15
2022-09-01T04:39:56.488Z,21.06
2022-09-01T04:42:28.126Z,20.76
2022-09-01T04:44:57.617Z,20.86
2022-09-01T04:47:36.253Z,21.05
2022-09-01T04:50:17.554Z,21.13
2022-09-01T04:53:06.135Z,21.19
2022-09-01T04:55:43.636Z,21.15
2022-09-01T04:58:17.438Z,21.13
2022-09-01T05:00:48.244Z,20.94
2022-09-01T05:03:21.486Z,20.89
2022-09-01T05:06:00.226Z,21.03
2022-09-01T05:08:28.985Z,20.88
2022-09-01T05:11:07.503Z,20.81
2022-09-01T05:13:39.721Z,20.76
2022-09-01T05:16:13.227Z,20.77
2022-09-01T05:18:47.837Z,20.74
2022-09-01T05:21:19.913Z,20.94
2022-09-01T05:23:51.748Z,21.05
2022-09-01T05:26:23.417Z,21.11
2022-09-01T05:28:54.927Z,21.16
2022-09-01T05:31:24.020Z,21.26
2022-09-01T05:33:51.844Z,21.37
2022-09-01T05:36:23.008Z,21.50
2022-09-01T05:38:52.315Z,21.67
2022-09-01T05:41:21.117Z,22.18
2022-09-01T05:43:55.082Z,22.27
2022-09-01T05:46:28.142Z,21.92
2022-09-01T05:48:57.329Z,21.85
2022-09-01T05:51:43.862Z,21.83
2022-09-01T05:54:14.393Z,21.81
2022-09-01T05:56:44.099Z,21.75
2022-09-01T05:59:23.467Z,21.75
2022-09-01T06:01:54.612Z,21.64
2022-09-01T06:04:25.490Z,21.79
2022-09-01T06:07:06.065Z,22.00
2022-09-01T06:09:43.177Z,21.96
2022-09-01T06:12:17.804Z,21.89
2022-09-01T06:14:50.063Z,21.87
2022-09-01T06:17:24.650Z,22.18
2022-09-01T06:19:56.845Z,22.49
2022-09-01T06:22:26.762Z,22.74
2022-09-01T06:24:59.447Z,22.71
2022-09-01T06:27:33.014Z,23.05
2022-09-01T06:30:00.277Z,23.14
2022-09-01T06:32:27.940Z,23.11
2022-09-01T06:34:58.153Z,22.92
2022-09-01T06:37:27.063Z,22.66
2022-09-01T06:39:58.551Z,22.53
2022-09-01T06:42:26.653Z,22.54
2022-09-01T06:44:59.792Z,22.73
2022-09-01T06:47:28.617Z,22.73
2022-09-01T06:49:59.449Z,22.92
2022-09-01T06:52:28.701Z,22.93
2022-09-01T06:54:57.934Z,22.39
2022-09-01T07:00:20.199Z,22.63
2022-09-01T07:02:54.920Z,23.15
2022-09-01T07:06:03.033Z,23.04
2022-09-01T07:12:08.502Z,23.12
2022-09-01T07:16:30.195Z,23.08
2022-09-01T07:17:25.373Z,22.91
2022-09-01T07:19:53.991Z,22.92
2022-09-01T07:23:02.985Z,22.97
2022-09-01T07:25:12.926Z,23.21
2022-09-01T07:28:06.679Z,23.24
2022-09-01T07:30:35.290Z,23.26
2022-09-01T07:44:54.000Z,23.21
2022-09-01T07:47:52.769Z,22.97
2022-09-01T07:53:12.614Z,22.81
2022-09-01T07:55:44.315Z,23.08
2022-09-01T07:58:15.115Z,23.17
2022-09-01T08:00:47.343Z,22.94
2022-09-01T08:03:20.170Z,22.90
2022-09-01T08:05:51.295Z,22.99
2022-09-01T08:08:18.974Z,22.91
2022-09-01T08:10:49.429Z,23.38
2022-09-01T08:13:20.004Z,23.50
2022-09-01T08:18:52.842Z,23.35
2022-09-01T08:21:46.235Z,23.68
2022-09-01T08:24:24.751Z,23.67
2022-09-01T08:26:52.081Z,23.42
2022-09-01T08:29:19.408Z,23.58
2022-09-01T08:31:47.558Z,23.74
2022-09-01T08:34:17.022Z,23.85
2022-09-01T08:36:44.373Z,23.36
2022-09-01T08:39:12.158Z,23.53
2022-09-01T08:41:53.555Z,23.84
2022-09-01T08:44:26.875Z,24.04
2022-09-01T08:47:03.717Z,24.01
2022-09-01T08:49:42.899Z,24.19
2022-09-01T08:52:33.168Z,24.08
2022-09-01T08:55:27.537Z,24.21
2022-09-01T08:57:59.869Z,24.21
2022-09-01T09:00:30.737Z,24.20
2022-09-01T09:03:15.648Z,23.82
2022-09-01T09:06:13.924Z,24.08
2022-09-01T09:08:43.991Z,24.23
2022-09-01T09:11:30.125Z,24.41
2022-09-01T09:14:00.175Z,24.53
2022-09-01T09:16:35.462Z,24.42
2022-09-01T09:19:11.522Z,24.51
2022-09-01T09:21:48.115Z,24.41
2022-09-01T09:24:47.095Z,24.50
2022-09-01T09:27:23.979Z,24.31
2022-09-01T09:29:58.207Z,24.28
2022-09-01T09:33:19.923Z,24.37
2022-09-01T09:35:41.996Z,24.53
2022-09-01T09:38:29.172Z,24.53
2022-09-01T09:41:20.256Z,24.53
2022-09-01T09:44:05.290Z,24.48
2022-09-01T09:46:32.645Z,24.55
2022-09-01T09:49:36.488Z,24.45
2022-09-01T09:52:08.748Z,24.55
2022-09-01T09:54:38.619Z,24.33
2022-09-01T09:57:08.553Z,24.26
2022-09-01T10:00:02.488Z,24.47
2022-09-01T10:02:43.981Z,24.64
2022-09-01T10:05:43.268Z,24.82
2022-09-01T10:08:28.694Z,24.83
2022-09-01T10:10:57.878Z,24.98
2022-09-01T10:13:32.690Z,25.10
2022-09-01T10:16:05.673Z,24.99
2022-09-01T10:18:39.747Z,24.97
2022-09-01T10:21:26.532Z,25.03
2022-09-01T10:23:54.641Z,25.05
2022-09-01T10:26:35.503Z,25.07
2022-09-01T10:29:15.669Z,25.10
2022-09-01T10:31:43.431Z,25.11
2022-09-01T10:34:19.400Z,25.21
2022-09-01T10:36:56.747Z,25.21
2022-09-01T10:39:29.472Z,25.17
2022-09-01T10:42:07.063Z,25.21
2022-09-01T10:44:57.896Z,25.11
2022-09-01T10:47:33.342Z,24.98
2022-09-01T10:50:09.889Z,25.12
2022-09-01T10:52:44.015Z,25.08
2022-09-01T10:55:24.977Z,25.11
2022-09-01T11:01:34.958Z,25.08
2022-09-01T11:04:03.558Z,24.97
2022-09-01T11:06:35.939Z,24.85
2022-09-01T11:09:06.777Z,24.86
2022-09-01T11:11:33.937Z,24.86
2022-09-01T11:14:04.100Z,24.85
2022-09-01T11:16:53.689Z,24.72
2022-09-01T11:19:47.500Z,24.72
2022-09-01T11:22:26.484Z,24.81
2022-09-01T11:25:41.025Z,24.88
2022-09-01T11:28:17.981Z,24.95
2022-09-01T11:30:55.318Z,24.93
2022-09-01T11:33:34.492Z,24.91
2022-09-01T11:36:03.916Z,24.90
2022-09-01T11:38:43.658Z,24.87
2022-09-01T11:41:22.979Z,25.06
2022-09-01T11:43:54.418Z,25.21
2022-09-01T11:46:29.178Z,25.20
2022-09-01T11:48:58.488Z,25.21
2022-09-01T11:51:26.086Z,25.18
2022-09-01T11:54:00.569Z,25.13
2022-09-01T11:56:28.776Z,25.13
2022-09-01T11:58:56.042Z,25.15
2022-09-01T12:01:33.373Z,25.23
2022-09-01T12:04:31.855Z,25.30
2022-09-01T12:07:13.134Z,25.42
2022-09-01T12:09:47.991Z,25.48
2022-09-01T12:12:33.390Z,25.44
2022-09-01T12:15:06.657Z,25.46
2022-09-01T12:17:35.831Z,25.43
2022-09-01T12:20:31.113Z,25.42
2022-09-01T12:23:00.093Z,25.48
2022-09-01T12:25:33.295Z,25.57
2022-09-01T12:28:02.856Z,25.44
2022-09-01T12:30:35.309Z,25.51
2022-09-01T12:36:11.411Z,25.56
2022-09-01T12:38:38.652Z,25.64
2022-09-01T12:41:24.295Z,25.71
2022-09-01T12:43:54.838Z,25.65
2022-09-01T12:46:43.431Z,25.72
2022-09-01T12:49:25.315Z,25.74
2022-09-01T12:52:19.895Z,25.65
2022-09-01T12:54:53.815Z,25.56
2022-09-01T12:57:31.451Z,25.45
2022-09-01T13:00:11.186Z,25.44
2022-09-01T13:02:49.779Z,25.43
2022-09-01T13:05:42.327Z,25.61
2022-09-01T13:08:12.936Z,25.54
2022-09-01T13:10:44.730Z,25.60
2022-09-01T13:13:13.242Z,25.60
2022-09-01T13:15:48.202Z,25.62
2022-09-01T13:18:16.393Z,25.63
2022-09-01T13:20:44.198Z,25.65
2022-09-01T13:23:12.791Z,25.66
2022-09-01T13:25:41.569Z,25.65
2022-09-01T13:28:08.932Z,25.67
2022-09-01T13:30:36.178Z,25.57
2022-09-01T13:33:20.489Z,25.45
2022-09-01T13:35:49.390Z,25.46
2022-09-01T13:38:17.213Z,25.40
2022-09-01T13:40:46.935Z,25.43
2022-09-01T13:43:16.579Z,25.46
2022-09-01T13:45:45.057Z,25.52
2022-09-01T13:48:15.860Z,25.60
2022-09-01T13:53:33.959Z,25.70
2022-09-01T13:56:01.678Z,25.71
2022-09-01T13:58:28.923Z,25.61
2022-09-01T14:00:59.487Z,25.64
2022-09-01T14:03:27.062Z,25.67
2022-09-01T14:05:54.724Z,25.66
2022-09-01T14:08:22.923Z,25.64
2022-09-01T14:10:52.455Z,25.61
2022-09-01T14:13:21.757Z,25.63
2022-09-01T14:15:49.946Z,25.70
2022-09-01T14:18:17.960Z,25.85
2022-09-01T14:20:48.182Z,25.95
2022-09-01T14:23:15.875Z,25.96
2022-09-01T14:25:46.023Z,25.93
2022-09-01T14:28:14.039Z,26.04
2022-09-01T14:30:43.935Z,26.05
2022-09-01T14:33:12.368Z,26.08
2022-09-01T14:35:42.320Z,26.06
2022-09-01T14:38:11.607Z,26.18
2022-09-01T14:40:57.228Z,26.11
2022-09-01T14:43:28.605Z,26.12
2022-09-01T14:46:07.360Z,26.17
2022-09-01T14:48:35.364Z,26.22
2022-09-01T14:51:02.969Z,26.53
2022-09-01T14:53:32.014Z,26.57
2022-09-01T14:56:00.753Z,26.57
2022-09-01T14:58:29.812Z,26.40
2022-09-01T15:01:03.482Z,26.31
2022-09-01T15:03:34.697Z,26.40
2022-09-01T15:06:01.936Z,26.22
2022-09-01T15:08:29.182Z,26.31
2022-09-01T15:10:56.407Z,26.43
2022-09-01T15:13:23.622Z,26.28
2022-09-01T15:15:50.870Z,26.28
2022-09-01T15:18:18.215Z,26.27
2022-09-01T15:20:45.504Z,26.44
2022-09-01T15:23:22.403Z,26.65
2022-09-01T15:25:53.814Z,26.66
2022-09-01T15:28:22.912Z,26.66
2022-09-01T15:30:54.309Z,26.72
2022-09-01T15:33:21.902Z,26.74
2022-09-01T15:35:49.386Z,26.71
2022-09-01T15:38:17.947Z,26.80
2022-09-01T15:40:50.282Z,26.93
2022-09-01T15:43:26.452Z,27.14
2022-09-01T15:45:53.732Z,26.95
2022-09-01T15:48:21.014Z,26.63
2022-09-01T15:50:48.260Z,26.44
2022-09-01T15:53:15.563Z,25.98
2022-09-01T15:55:47.246Z,25.85
2022-09-01T15:58:17.096Z,25.84
2022-09-01T16:00:45.667Z,25.86
2022-09-01T16:03:13.422Z,25.71
2022-09-01T16:05:41.134Z,25.48
2022-09-01T16:08:09.985Z,25.50
2022-09-01T16:10:40.092Z,25.46
2022-09-01T16:13:08.224Z,25.46
2022-09-01T16:15:58.224Z,25.47
2022-09-01T16:18:48.188Z,25.30
2022-09-01T16:21:37.471Z,25.21
2022-09-01T16:24:09.571Z,25.30
2022-09-01T16:26:37.672Z,25.28
2022-09-01T16:29:15.435Z,25.21
2022-09-01T16:31:43.047Z,25.23
2022-09-01T16:34:18.071Z,25.26
2022-09-01T16:37:09.991Z,25.23
2022-09-01T16:40:05.777Z,25.13
2022-09-01T16:43:08.797Z,25.07
2022-09-01T16:45:46.466Z,24.99
2022-09-01T16:48:30.871Z,24.95
2022-09-01T16:51:13.549Z,24.90
2022-09-01T16:54:09.047Z,24.91
2022-09-01T16:56:47.286Z,24.96
2022-09-01T16:59:48.771Z,24.97
2022-09-01T17:02:40.577Z,24.93
2022-09-01T17:05:24.520Z,24.95
2022-09-01T17:08:10.222Z,24.94
2022-09-01T17:10:51.099Z,24.83
2022-09-01T17:13:26.004Z,24.81
2022-09-01T17:16:07.927Z,24.72
2022-09-01T17:18:40.266Z,24.50
2022-09-01T17:21:13.968Z,24.47
2022-09-01T17:23:50.587Z,24.38
2022-09-01T17:26:29.068Z,24.31
2022-09-01T17:29:09.440Z,24.27
2022-09-01T17:31:47.403Z,24.21
2022-09-01T17:34:43.796Z,24.18
2022-09-01T17:37:21.860Z,24.27
2022-09-01T17:40:16.408Z,24.37
2022-09-01T17:42:55.507Z,24.43
2022-09-01T17:45:54.083Z,24.48
2022-09-01T17:48:40.000Z,24.48
2022-09-01T17:51:31.679Z,24.45
2022-09-01T17:54:24.871Z,24.44
2022-09-01T17:57:15.275Z,24.44
2022-09-01T18:00:01.570Z,24.45
2022-09-01T18:02:58.171Z,24.48
2022-09-01T18:05:26.651Z,24.50
2022-09-01T18:08:21.564Z,24.53
2022-09-01T18:11:00.063Z,24.54
2022-09-01T18:13:52.512Z,24.54
2022-09-01T18:16:31.911Z,24.53
2022-09-01T18:19:14.549Z,24.52
2022-09-01T18:21:49.606Z,24.52
2022-09-01T18:24:22.126Z,24.53
2022-09-01T18:26:51.560Z,24.52
2022-09-01T18:29:19.553Z,24.51
2022-09-01T18:32:03.712Z,24.50
2022-09-01T18:34:36.627Z,24.48
2022-09-01T18:37:19.478Z,24.41
2022-09-01T18:40:07.633Z,24.27
2022-09-01T18:43:16.701Z,24.20
2022-09-01T18:45:58.708Z,24.16
2022-09-01T18:48:49.748Z,24.15
2022-09-01T18:51:44.147Z,24.15
2022-09-01T18:54:50.140Z,24.11
2022-09-01T18:57:21.137Z,24.08
2022-09-01T19:00:00.010Z,24.10
2022-09-01T19:03:04.674Z,24.10
2022-09-01T19:05:38.356Z,24.12
2022-09-01T19:08:17.688Z,24.11
2022-09-01T19:11:03.155Z,24.11
2022-09-01T19:13:32.519Z,24.10
2022-09-01T19:16:21.525Z,24.07
2022-09-01T19:19:13.628Z,24.06
2022-09-01T19:21:43.778Z,24.07
2022-09-01T19:24:52.988Z,24.06
2022-09-01T19:27:24.736Z,24.08
2022-09-01T19:29:57.921Z,24.09
2022-09-01T19:32:27.288Z,24.13
2022-09-01T19:35:16.839Z,24.13
2022-09-01T19:37:47.970Z,24.12
2022-09-01T19:40:24.832Z,24.13
2022-09-01T19:43:05.202Z,24.14
2022-09-01T19:45:38.243Z,24.14
2022-09-01T19:48:29.256Z,24.14
2022-09-01T19:51:13.442Z,24.14
2022-09-01T19:53:49.675Z,24.11
2022-09-01T19:56:23.502Z,24.06
2022-09-01T19:59:15.205Z,24.07
2022-09-01T20:02:11.412Z,24.05
2022-09-01T20:04:49.441Z,24.03
2022-09-01T20:07:36.216Z,24.03
2022-09-01T20:10:21.786Z,24.02
2022-09-01T20:13:26.937Z,24.03
2022-09-01T20:16:04.162Z,24.05
2022-09-01T20:18:36.085Z,24.05
2022-09-01T20:21:08.978Z,24.05
2022-09-01T20:24:08.337Z,24.06
2022-09-01T20:26:43.274Z,24.06
2022-09-01T20:29:35.924Z,24.07
2022-09-01T20:32:04.079Z,24.05
2022-09-01T20:34:52.905Z,24.07
2022-09-01T20:37:34.382Z,24.05
2022-09-01T20:40:17.625Z,24.04
2022-09-01T20:43:28.086Z,24.05
2022-09-01T20:45:55.395Z,23.98
2022-09-01T20:48:25.988Z,23.66
2022-09-01T20:50:59.715Z,23.12
2022-09-01T20:53:35.730Z,22.75
2022-09-01T20:56:40.449Z,22.43
2022-09-01T20:59:25.655Z,22.75
2022-09-01T21:02:29.801Z,23.10
2022-09-01T21:05:14.992Z,23.30
2022-09-01T21:08:09.325Z,23.29
2022-09-01T21:11:14.671Z,22.89
2022-09-01T21:14:14.231Z,22.37
2022-09-01T21:17:08.826Z,22.12
2022-09-01T21:20:06.214Z,21.98
2022-09-01T21:22:33.440Z,22.43
2022-09-01T21:25:01.038Z,22.75
2022-09-01T21:27:36.878Z,23.00
2022-09-01T21:30:10.831Z,23.15
2022-09-01T21:32:39.173Z,23.28
2022-09-01T21:35:09.934Z,23.35
2022-09-01T21:37:37.570Z,23.21
2022-09-01T21:40:06.796Z,22.73
2022-09-01T21:42:48.962Z,22.27
2022-09-01T21:45:18.803Z,22.03
2022-09-01T21:47:48.636Z,21.80
2022-09-01T21:50:18.455Z,21.65
2022-09-01T21:52:45.668Z,21.48
2022-09-01T21:55:13.351Z,21.38
2022-09-01T21:57:42.087Z,21.22
2022-09-01T22:00:15.837Z,21.17
2022-09-01T22:02:44.774Z,21.10
2022-09-01T22:05:13.035Z,21.07
2022-09-01T22:07:42.784Z,21.04
2022-09-01T22:10:13.485Z,21.09
2022-09-01T22:12:43.819Z,21.17
2022-09-01T22:15:13.336Z,21.20
2022-09-01T22:17:40.635Z,21.08
2022-09-01T22:20:10.272Z,20.92
2022-09-01T22:22:37.898Z,20.64
2022-09-01T22:25:11.286Z,20.82
2022-09-01T22:27:38.878Z,21.02
2022-09-01T22:30:07.846Z,21.35
2022-09-01T22:32:37.872Z,21.54
2022-09-01T22:35:08.192Z,21.66
2022-09-01T22:37:36.688Z,21.54
2022-09-01T22:40:05.716Z,21.37
2022-09-01T22:42:33.336Z,21.21
2022-09-01T22:45:01.399Z,21.11
2022-09-01T22:47:29.051Z,20.88
2022-09-01T22:49:56.314Z,20.69
2022-09-01T22:52:23.547Z,20.54
2022-09-01T22:54:52.285Z,20.43
2022-09-01T22:57:20.241Z,20.46
2022-09-01T22:59:47.756Z,20.42
2022-09-01T23:02:15.097Z,20.26
2022-09-01T23:04:42.560Z,20.17
2022-09-01T23:07:09.811Z,20.33
2022-09-01T23:09:37.032Z,20.50
2022-09-01T23:12:04.424Z,20.55
2022-09-01T23:14:31.902Z,20.53
2022-09-01T23:16:59.859Z,20.50
2022-09-01T23:19:27.130Z,20.39
2022-09-01T23:21:54.559Z,20.26
2022-09-01T23:24:22.020Z,20.15
2022-09-01T23:26:49.267Z,20.08
2022-09-01T23:29:16.992Z,19.90
2022-09-01T23:31:44.407Z,19.73
2022-09-01T23:34:13.275Z,19.59
2022-09-01T23:36:41.492Z,19.59
2022-09-01T23:39:08.790Z,19.55
2022-09-01T23:41:37.923Z,19.49
2022-09-01T23:44:09.426Z,19.48
2022-09-01T23:46:41.290Z,19.34
2022-09-01T23:49:09.956Z,19.35
2022-09-01T23:51:38.807Z,19.40
2022-09-01T23:54:07.013Z,19.47
2022-09-01T23:56:34.614Z,19.48
2022-09-01T23:59:02.137Z,19.51
